Time;durP1;ratioP1;P1;durP2;ratioP2;P2;SDS_P1;SDS_P2;PMS_P1;PMS_P2;Temp;Humidity;BMP_temperature;BMP_pressure;BME280_temperature;BME280_humidity;BME280_pressure;Samples;Min_cycle;Max_cycle;Signal;HPM_P1;HPM_P2
2022/06/09 00:03:52;;;;;;;5.13;3.50;;;;;;;16.52;95.42;96969.09;10323300;28;20045;-63
2022/06/09 00:08:52;;;;;;;6.25;3.65;;;;;;;16.49;95.24;96991.00;10337383;28;20080;-63
2022/06/09 00:13:52;;;;;;;6.32;3.28;;;;;;;16.41;94.89;96974.72;10303205;28;20061;-63
2022/06/09 00:18:51;;;;;;;6.75;3.70;;;;;;;15.97;95.43;96927.44;10292923;28;20061;-63
2022/06/09 00:23:51;;;;;;;7.22;3.80;;;;;;;16.10;95.54;96956.66;10293149;28;20448;-63
2022/06/09 00:28:50;;;;;;;5.57;3.50;;;;;;;16.12;95.60;96975.78;10291593;28;20089;-63
2022/06/09 00:33:49;;;;;;;9.25;4.05;;;;;;;16.08;96.09;96972.41;10320781;28;20057;-63
2022/06/09 00:38:48;;;;;;;6.97;4.05;;;;;;;15.98;96.20;96951.88;10331041;28;20057;-63
2022/06/09 00:43:47;;;;;;;;;;;;;;;15.98;96.30;96964.94;10330775;28;20060;-63
2022/06/09 00:48:50;;;;;;;5.57;3.77;;;;;;;15.90;96.09;96965.19;10324709;28;19913;-63
2022/06/09 00:53:54;;;;;;;6.65;4.50;;;;;;;15.95;96.40;96963.28;10296645;28;20057;-63
2022/06/09 00:58:55;;;;;;;7.15;4.55;;;;;;;15.94;96.32;96958.09;10302731;28;20065;-63
2022/06/09 01:04:01;;;;;;;9.57;4.72;;;;;;;15.94;96.94;96961.56;10316346;28;20049;-63
2022/06/09 01:09:10;;;;;;;8.73;5.22;;;;;;;15.82;97.02;96954.16;10332111;28;20451;-63
2022/06/09 01:14:14;;;;;;;;;;;;;;;15.84;97.35;96962.81;10311846;28;20121;-63
2022/06/09 01:19:40;;;;;;;10.30;6.40;;;;;;;15.80;97.51;96964.66;10314416;28;19944;-63
2022/06/09 01:25:11;;;;;;;9.85;6.82;;;;;;;15.75;98.40;96966.56;10300063;28;20484;-63
2022/06/09 01:30:18;;;;;;;13.02;7.30;;;;;;;15.63;98.99;96951.28;10281779;28;20069;-63
2022/06/09 01:35:26;;;;;;;11.93;7.40;;;;;;;15.68;99.58;96965.91;10339125;28;20064;-63
2022/06/09 01:40:26;;;;;;;13.20;7.38;;;;;;;15.66;99.44;96962.47;10337994;28;20068;-63
2022/06/09 01:45:48;;;;;;;11.32;7.55;;;;;;;15.67;99.21;96969.44;10340013;28;20056;-63
2022/06/09 01:51:01;;;;;;;11.55;6.82;;;;;;;15.60;99.38;96959.22;10298551;28;20077;-63
2022/06/09 01:56:06;;;;;;;10.32;6.03;;;;;;;15.62;99.29;96963.53;10297871;28;20065;-63
2022/06/09 02:01:06;;;;;;;10.57;6.45;;;;;;;15.61;99.12;96953.94;10298811;28;20053;-63
2022/06/09 02:06:08;;;;;;;10.20;6.63;;;;;;;15.58;99.02;96959.28;10298081;28;20064;-63
2022/06/09 02:11:10;;;;;;;12.80;6.63;;;;;;;15.50;98.80;96944.75;10370506;28;20091;-63
2022/06/09 02:16:14;;;;;;;13.55;7.20;;;;;;;15.53;98.76;96963.81;10338469;28;20053;-64
2022/06/09 02:21:24;;;;;;;11.80;7.43;;;;;;;15.47;98.59;96950.94;10333150;28;20064;-63
2022/06/09 02:26:24;;;;;;;12.05;7.30;;;;;;;15.49;98.66;96962.22;10336514;28;20080;-63
2022/06/09 02:31:24;;;;;;;12.00;7.05;;;;;;;15.46;98.40;96954.47;10334115;28;20064;-63
2022/06/09 02:36:23;;;;;;;12.10;7.18;;;;;;;15.41;98.16;96952.03;10325877;28;20064;-64
2022/06/09 02:41:22;;;;;;;14.52;7.55;;;;;;;15.34;98.50;96960.09;10296837;28;20463;-63
2022/06/09 02:46:21;;;;;;;12.07;7.10;;;;;;;15.26;98.54;96957.75;10309783;28;20068;-63
2022/06/09 02:51:20;;;;;;;;;;;;;;;15.24;98.48;96965.63;10296224;28;20046;-64
2022/06/09 02:56:19;;;;;;;14.18;6.90;;;;;;;15.04;99.24;96939.28;10294475;28;19921;-64
2022/06/09 03:01:19;;;;;;;13.65;7.82;;;;;;;15.16;99.76;96969.41;10296011;28;20061;-64
2022/06/09 03:06:18;;;;;;;13.52;8.60;;;;;;;15.11;100.00;96974.78;10296124;28;20057;-63
2022/06/09 03:11:17;;;;;;;11.95;7.15;;;;;;;14.97;100.00;96977.81;10294738;28;20061;-63
2022/06/09 03:16:16;;;;;;;;;;;;;;;14.96;100.00;96975.25;10293423;28;20041;-64
2022/06/09 03:21:15;;;;;;;14.32;8.38;;;;;;;15.00;100.00;96987.31;10294949;28;19955;-64
2022/06/09 03:26:14;;;;;;;;;;;;;;;15.02;100.00;96988.13;10302658;28;20088;-63
2022/06/09 03:31:13;;;;;;;15.30;9.13;;;;;;;15.05;100.00;96985.41;10333355;28;19915;-63
2022/06/09 03:36:13;;;;;;;14.75;8.93;;;;;;;15.07;100.00;96983.59;10334654;28;20501;-64
2022/06/09 03:41:12;;;;;;;17.85;9.75;;;;;;;15.12;100.00;96981.69;10335450;28;20065;-64
2022/06/09 03:46:11;;;;;;;;;;;;;;;15.16;100.00;96978.09;10327565;28;20030;-64
2022/06/09 03:51:11;;;;;;;14.60;9.85;;;;;;;15.18;100.00;96980.66;10294521;28;19960;-64
2022/06/09 03:56:14;;;;;;;15.38;9.55;;;;;;;15.14;100.00;96964.22;10293920;28;20072;-64
2022/06/09 04:01:17;;;;;;;19.63;9.50;;;;;;;15.32;100.00;96988.91;10294380;28;20057;-64
2022/06/09 04:06:22;;;;;;;17.27;10.27;;;;;;;15.35;100.00;96994.03;10299747;28;20053;-63
2022/06/09 04:11:22;;;;;;;20.45;10.27;;;;;;;15.42;99.70;96989.47;10334523;28;20057;-64
2022/06/09 04:16:26;;;;;;;16.85;10.40;;;;;;;15.45;99.64;96982.38;10335911;28;20447;-64
2022/06/09 04:21:27;;;;;;;16.83;11.32;;;;;;;15.37;98.81;96976.53;10323484;28;20061;-64
2022/06/09 04:26:29;;;;;;;18.63;11.82;;;;;;;15.60;98.91;96993.22;10331064;28;20053;-64
2022/06/09 04:31:28;;;;;;;14.45;10.77;;;;;;;15.60;99.04;96986.25;10296273;28;20057;-64
2022/06/09 04:36:27;;;;;;;;;;;;;;;15.80;98.58;96989.97;10297045;28;20121;-64
2022/06/09 04:41:26;;;;;;;17.08;10.38;;;;;;;15.73;99.43;96980.59;10295732;28;20355;-64
2022/06/09 04:46:25;;;;;;;;;;;;;;;15.58;99.98;96988.06;10316076;28;20030;-64
2022/06/09 04:51:26;;;;;;;12.47;8.80;;;;;;;15.39;100.00;96984.34;10299476;28;19956;-64
2022/06/09 04:56:27;;;;;;;11.52;8.73;;;;;;;15.36;100.00;96984.44;10366490;28;20741;-63
2022/06/09 05:01:30;;;;;;;11.32;8.88;;;;;;;15.48;100.00;96981.41;10348475;28;20077;-64
2022/06/09 05:06:29;;;;;;;15.23;9.48;;;;;;;15.55;99.99;96975.09;10371717;28;20057;-63
2022/06/09 05:11:28;;;;;;;15.93;10.52;;;;;;;15.72;99.79;96994.59;10357355;28;20056;-64
2022/06/09 05:16:27;;;;;;;;;;;;;;;15.95;99.87;96984.22;10372518;28;20033;-64
2022/06/09 05:21:26;;;;;;;12.23;9.30;;;;;;;16.22;99.03;96986.78;10368904;28;20397;-64
2022/06/09 05:26:25;;;;;;;;;;;;;;;16.36;98.60;96978.41;10367937;28;20040;-64
2022/06/09 05:31:23;;;;;;;12.25;8.20;;;;;;;16.59;97.77;96969.72;10369529;28;20385;-63
2022/06/09 05:36:22;;;;;;;;;;;;;;;16.82;96.06;96979.34;10369436;28;20584;-63
2022/06/09 05:46:39;;;;;;;14.38;7.00;;;;;;;17.02;94.40;96947.13;10366186;28;20479;-64
2022/06/09 05:51:38;;;;;;;9.68;6.15;;;;;;;17.03;93.58;96954.09;10362023;28;20080;-64
2022/06/09 05:56:37;;;;;;;9.80;5.82;;;;;;;17.41;94.10;96970.88;10372817;28;20088;-64
2022/06/09 06:01:36;;;;;;;6.15;4.70;;;;;;;17.44;90.78;96970.75;10339860;28;20037;-64
2022/06/09 06:06:35;;;;;;;6.20;4.72;;;;;;;17.56;88.60;96946.63;10373378;28;20482;-64
2022/06/09 06:11:36;;;;;;;9.18;5.70;;;;;;;17.87;88.54;96950.63;10378910;28;20071;-64
2022/06/09 06:16:36;;;;;;;8.93;5.10;;;;;;;18.13;87.49;96943.38;10377117;28;20056;-64
2022/06/09 06:21:37;;;;;;;8.10;5.30;;;;;;;18.29;86.32;96943.53;10369380;28;20059;-64
2022/06/09 06:26:36;;;;;;;8.80;4.90;;;;;;;18.49;85.38;96925.09;10371711;28;20841;-64
2022/06/09 06:31:35;;;;;;;8.93;5.97;;;;;;;18.73;85.83;96932.78;10338093;28;20064;-64
2022/06/09 06:36:35;;;;;;;9.02;5.47;;;;;;;18.84;84.46;96924.41;10337520;28;20021;-64
2022/06/09 06:41:34;;;;;;;9.35;5.85;;;;;;;19.06;81.98;96930.31;10338141;28;20063;-64
2022/06/09 06:46:34;;;;;;;8.40;5.95;;;;;;;19.34;83.88;96929.00;10362103;28;20053;-64
2022/06/09 06:51:32;;;;;;;7.93;5.97;;;;;;;19.49;82.22;96908.97;10376947;28;20084;-64
2022/06/09 06:56:33;;;;;;;8.63;5.10;;;;;;;19.12;79.12;96839.78;10372281;28;20053;-64
2022/06/09 07:01:32;;;;;;;9.27;5.35;;;;;;;19.93;78.78;96929.53;10367941;28;20063;-64
2022/06/09 07:06:31;;;;;;;6.78;5.55;;;;;;;19.98;77.48;96915.22;10340615;28;20060;-64
2022/06/09 07:11:30;;;;;;;8.85;5.47;;;;;;;20.05;76.18;96915.75;10335860;28;20452;-63
2022/06/09 07:16:29;;;;;;;9.38;5.20;;;;;;;20.03;75.57;96897.41;10346288;28;20107;-64
2022/06/09 07:21:28;;;;;;;9.00;5.55;;;;;;;20.34;75.54;96910.72;10380082;28;20105;-64
2022/06/09 07:26:28;;;;;;;7.80;5.25;;;;;;;20.44;75.08;96906.69;10376386;28;20021;-64
2022/06/09 07:31:27;;;;;;;6.00;5.03;;;;;;;20.43;72.31;96911.09;10379286;28;20067;-63
2022/06/09 07:36:28;;;;;;;6.20;4.90;;;;;;;20.25;68.48;96905.00;10377484;28;20498;-63
2022/06/09 08:05:17;;;;;;;5.18;4.13;;;;;;;21.37;64.63;96876.88;10565783;27;20425;-57
2022/06/09 08:10:20;;;;;;;6.35;4.57;;;;;;;21.25;61.69;96875.78;10516802;27;20060;-57
2022/06/09 08:15:20;;;;;;;6.32;4.70;;;;;;;21.49;60.94;96865.56;10518381;27;20070;-57
2022/06/09 08:20:19;;;;;;;9.07;5.45;;;;;;;21.71;59.83;96864.28;10532625;28;20062;-58
2022/06/09 08:25:19;;;;;;;7.28;4.90;;;;;;;21.95;60.24;96856.69;10542119;27;20856;-58
2022/06/09 08:30:18;;;;;;;8.63;5.40;;;;;;;22.05;60.82;96849.06;10535728;28;20063;-58
2022/06/09 08:35:18;;;;;;;7.00;4.97;;;;;;;22.20;60.29;96849.91;10503143;27;20140;-58
2022/06/09 08:40:23;;;;;;;6.32;5.05;;;;;;;22.31;59.01;96855.38;10535400;28;20089;-58
2022/06/09 08:45:33;;;;;;;7.03;4.90;;;;;;;22.46;58.45;96840.34;10524950;27;20059;-58
2022/06/09 08:50:38;;;;;;;5.13;4.38;;;;;;;22.46;53.83;96838.56;10534581;28;20445;-58
2022/06/09 08:55:43;;;;;;;8.07;5.05;;;;;;;22.65;56.68;96830.31;10529452;27;20485;-58
2022/06/09 09:00:50;;;;;;;6.55;4.25;;;;;;;22.92;54.82;96845.34;10534004;28;20070;-58
2022/06/09 09:05:56;;;;;;;7.85;5.05;;;;;;;23.02;56.08;96843.78;10492316;27;20082;-58
2022/06/09 09:11:01;;;;;;;7.30;4.78;;;;;;;22.93;53.31;96837.31;10482403;28;20059;-58
2022/06/09 09:16:02;;;;;;;6.20;4.65;;;;;;;22.94;54.29;96830.22;10472715;27;20086;-58
2022/06/09 09:21:38;;;;;;;6.30;4.13;;;;;;;23.15;52.64;96820.88;10477849;28;20505;-58
2022/06/09 09:27:11;;;;;;;5.05;4.10;;;;;;;23.30;53.04;96816.31;10498431;28;20055;-58
2022/06/09 09:32:18;;;;;;;6.30;3.92;;;;;;;23.52;52.25;96817.56;10501902;27;20066;-58
2022/06/09 09:37:39;;;;;;;6.30;4.32;;;;;;;23.73;50.50;96812.59;10505422;28;20066;-58
2022/06/09 09:42:42;;;;;;;5.97;4.15;;;;;;;24.11;50.43;96806.41;10503598;28;20625;-58
2022/06/09 09:47:51;;;;;;;6.47;4.75;;;;;;;24.46;49.07;96802.13;10504168;28;20485;-58
2022/06/09 09:52:56;;;;;;;5.85;4.30;;;;;;;24.90;50.20;96800.69;10483604;27;20059;-58
2022/06/09 09:58:17;;;;;;;4.38;3.83;;;;;;;25.45;48.01;96785.06;10485433;27;20055;-58
2022/06/09 10:08:54;;;;;;;5.25;3.40;;;;;;;26.36;44.82;96778.84;10501394;28;20153;-58
2022/06/09 10:13:53;;;;;;;4.22;3.42;;;;;;;26.88;46.39;96773.78;10502531;27;20059;-58
2022/06/09 10:18:54;;;;;;;4.63;3.38;;;;;;;27.38;44.50;96767.84;10503873;28;20473;-58
2022/06/09 10:24:07;;;;;;;5.85;3.20;;;;;;;27.52;43.98;96762.22;10502135;28;20569;-58
2022/06/09 10:29:20;;;;;;;4.20;3.00;;;;;;;27.70;42.98;96765.09;10503066;28;20066;-58
2022/06/09 10:56:24;;;;;;;4.85;3.03;;;;;;;27.50;44.37;96756.19;10492919;27;20166;-58
2022/06/09 11:01:28;;;;;;;5.40;3.53;;;;;;;27.29;44.75;96748.16;10493178;28;20067;-58
2022/06/09 11:06:50;;;;;;;4.30;3.70;;;;;;;27.28;48.81;96761.59;10492902;28;20074;-58
2022/06/09 11:12:04;;;;;;;4.10;3.30;;;;;;;27.33;47.67;96749.59;10490328;28;20493;-58
2022/06/09 11:17:22;;;;;;;6.82;4.50;;;;;;;27.02;45.18;96756.66;10492871;28;20070;-57
2022/06/09 11:22:40;;;;;;;5.30;3.20;;;;;;;26.11;44.00;96766.66;10487776;28;20522;-57
2022/06/09 11:27:51;;;;;;;4.33;3.10;;;;;;;25.12;46.35;96761.91;10475475;28;20059;-57
2022/06/09 11:32:52;;;;;;;6.97;3.90;;;;;;;24.28;53.65;96766.31;10477480;28;20480;-59
2022/06/09 11:37:51;;;;;;;7.57;4.43;;;;;;;24.05;58.09;96776.75;10492510;28;20047;-59
2022/06/09 11:42:55;;;;;;;7.07;3.58;;;;;;;23.94;58.90;96781.97;10481316;28;20031;-57
2022/06/09 11:47:58;;;;;;;7.35;3.63;;;;;;;23.40;61.35;96776.88;10473087;28;20712;-57
2022/06/09 11:52:59;;;;;;;4.55;3.28;;;;;;;22.94;65.66;96782.59;10500947;28;20082;-57
2022/06/09 11:57:58;;;;;;;8.02;3.55;;;;;;;21.86;68.67;96778.84;10485234;28;20051;-59
2022/06/09 12:03:16;;;;;;;12.23;4.53;;;;;;;21.01;69.47;96783.06;10481512;28;20028;-59
2022/06/09 12:08:44;;;;;;;7.30;4.05;;;;;;;20.35;71.72;96783.31;10497893;28;20059;-59
2022/06/09 12:14:10;;;;;;;9.98;3.90;;;;;;;19.74;72.39;96792.75;10494054;28;20070;-59
2022/06/09 12:19:20;;;;;;;5.90;3.45;;;;;;;19.53;71.42;96799.97;10502476;28;20082;-59
2022/06/09 12:24:30;;;;;;;8.48;3.35;;;;;;;19.77;70.57;96822.41;10496585;28;20059;-59
2022/06/09 12:29:43;;;;;;;3.60;2.88;;;;;;;20.01;65.31;96809.72;10486767;28;20075;-59
2022/06/09 12:34:47;;;;;;;6.03;3.50;;;;;;;20.52;67.85;96787.66;10491877;28;20493;-58
2022/06/09 12:39:49;;;;;;;8.55;4.90;;;;;;;20.53;71.86;96755.09;10502962;28;20082;-59
2022/06/09 12:45:00;;;;;;;8.23;4.25;;;;;;;20.06;77.54;96793.66;10477467;27;20068;-59
2022/06/09 12:50:18;;;;;;;5.80;4.07;;;;;;;19.83;81.43;96795.75;10501955;28;20079;-59
2022/06/09 12:55:24;;;;;;;4.43;3.30;;;;;;;20.79;81.22;96790.50;10497457;28;20478;-59
2022/06/09 13:00:33;;;;;;;3.03;2.50;;;;;;;21.17;69.90;96763.69;10495223;28;20063;-59
2022/06/09 13:05:36;;;;;;;4.55;3.08;;;;;;;21.75;73.01;96766.31;10468734;28;20064;-59
2022/06/09 13:10:38;;;;;;;4.95;3.10;;;;;;;22.46;71.65;96758.38;10484916;28;20054;-57
2022/06/09 13:15:48;;;;;;;3.40;2.95;;;;;;;22.80;66.77;96765.00;10496410;28;20051;-57
2022/06/09 13:21:00;;;;;;;2.80;2.42;;;;;;;22.44;59.96;96757.66;10503131;28;20164;-59
2022/06/09 13:26:00;;;;;;;4.32;2.58;;;;;;;22.57;60.27;96748.81;10502433;28;20059;-57
2022/06/09 13:31:02;;;;;;;4.45;2.78;;;;;;;23.00;60.83;96745.16;10485789;28;20051;-57
2022/06/09 13:36:30;;;;;;;3.63;2.80;;;;;;;23.10;56.69;96745.38;10487766;28;20054;-57
2022/06/09 13:41:38;;;;;;;4.07;2.63;;;;;;;22.96;58.21;96725.16;10474629;27;20567;-57
2022/06/09 13:46:59;;;;;;;2.63;2.42;;;;;;;22.61;56.48;96725.66;10484135;28;20074;-57
2022/06/09 13:52:21;;;;;;;3.30;2.38;;;;;;;22.51;56.88;96737.81;10497847;28;20060;-57
2022/06/09 13:57:27;;;;;;;4.65;3.28;;;;;;;22.64;58.42;96730.75;10466223;28;20087;-57
2022/06/09 14:02:39;;;;;;;4.95;3.10;;;;;;;22.69;56.70;96730.44;10497902;28;20489;-57
2022/06/09 14:07:38;;;;;;;5.05;3.00;;;;;;;23.20;57.19;96731.41;10466083;28;20051;-57
2022/06/09 14:12:37;;;;;;;3.08;2.63;;;;;;;23.57;55.65;96728.91;10496485;28;20059;-57
2022/06/09 14:17:36;;;;;;;3.67;2.45;;;;;;;23.91;54.66;96729.19;10492754;28;20031;-57
2022/06/09 14:22:35;;;;;;;4.30;2.95;;;;;;;24.00;54.13;96704.66;10480714;28;20027;-58
2022/06/09 14:27:34;;;;;;;2.97;2.47;;;;;;;23.72;52.60;96711.06;10493701;28;20561;-59
2022/06/09 14:32:36;;;;;;;5.25;2.80;;;;;;;23.42;55.71;96687.59;10495988;28;20059;-58
2022/06/09 14:37:36;;;;;;;3.72;2.78;;;;;;;23.60;54.18;96685.47;10493208;28;20068;-58
2022/06/09 14:42:35;;;;;;;5.65;2.97;;;;;;;24.06;52.89;96693.63;10486099;28;20472;-58
2022/06/09 14:47:34;;;;;;;3.40;2.45;;;;;;;24.70;51.63;96689.84;10482167;28;20413;-59
2022/06/09 14:52:33;;;;;;;3.58;2.47;;;;;;;25.11;49.43;96689.41;10499586;28;20043;-58
2022/06/09 14:57:32;;;;;;;3.72;2.40;;;;;;;25.43;47.02;96687.88;10489062;28;20034;-59
2022/06/09 15:02:31;;;;;;;3.58;2.85;;;;;;;25.77;48.96;96698.53;10483179;28;20064;-59
2022/06/09 15:07:30;;;;;;;3.33;2.53;;;;;;;26.12;49.56;96707.19;10470058;28;20046;-59
2022/06/09 15:12:29;;;;;;;3.95;2.80;;;;;;;26.36;48.72;96701.72;10486917;28;20528;-59
2022/06/09 15:17:29;;;;;;;3.00;2.60;;;;;;;26.54;49.26;96699.38;10490933;28;20409;-58
2022/06/09 15:22:28;;;;;;;2.95;2.70;;;;;;;26.47;47.98;96692.84;10491810;28;20067;-59
2022/06/09 15:27:27;;;;;;;3.15;2.40;;;;;;;26.64;48.79;96682.63;10495696;28;20058;-59
2022/06/09 15:32:26;;;;;;;5.97;2.75;;;;;;;26.63;48.36;96692.44;10500539;28;20043;-59
2022/06/09 15:37:25;;;;;;;3.47;2.70;;;;;;;26.43;49.47;96695.91;10474496;28;20047;-57
2022/06/09 15:42:24;;;;;;;6.10;2.70;;;;;;;26.08;51.04;96689.78;10482354;28;20043;-57
2022/06/09 15:47:23;;;;;;;3.17;2.80;;;;;;;25.67;52.45;96691.28;10487796;28;20510;-57
2022/06/09 15:52:22;;;;;;;6.55;3.50;;;;;;;25.54;53.71;96685.25;10501224;28;20498;-56
2022/06/09 15:57:21;;;;;;;3.38;2.70;;;;;;;25.46;52.56;96674.38;10496657;28;20063;-59
2022/06/09 16:02:20;;;;;;;3.53;3.00;;;;;;;25.27;53.10;96674.94;10486276;28;20106;-58
2022/06/09 16:07:23;;;;;;;6.05;4.13;;;;;;;24.95;53.25;96661.50;10493662;28;20028;-59
2022/06/09 16:12:24;;;;;;;6.40;3.20;;;;;;;24.68;54.75;96662.59;10491988;28;20056;-59
2022/06/09 16:17:23;;;;;;;3.42;2.92;;;;;;;24.32;54.56;96656.44;10485917;28;20118;-59
2022/06/09 16:22:22;;;;;;;2.75;2.55;;;;;;;24.10;54.45;96654.50;10479921;28;20024;-58
2022/06/09 16:27:21;;;;;;;8.20;5.72;;;;;;;24.16;55.08;96650.53;10492453;28;20019;-58
2022/06/09 16:32:19;;;;;;;6.15;4.20;;;;;;;24.33;55.77;96650.16;10501254;28;20796;-58
2022/06/09 16:37:18;;;;;;;3.50;3.17;;;;;;;24.58;55.94;96643.88;10495709;28;20707;-58
2022/06/09 16:42:20;;;;;;;5.13;2.50;;;;;;;24.61;53.56;96648.09;10499733;28;20030;-59
2022/06/09 16:47:19;;;;;;;3.25;2.47;;;;;;;24.71;52.46;96641.16;10500739;28;20484;-59
2022/06/09 16:52:18;;;;;;;2.70;2.40;;;;;;;24.67;51.83;96655.59;10492589;28;20447;-58
2022/06/09 16:57:17;;;;;;;3.83;2.75;;;;;;;24.60;50.98;96665.00;10483330;28;20058;-59
2022/06/09 17:02:16;;;;;;;5.55;2.80;;;;;;;24.36;50.93;96652.59;10500407;28;20059;-58
2022/06/09 17:07:18;;;;;;;3.60;3.00;;;;;;;24.22;51.25;96671.34;10493449;28;20059;-58
2022/06/09 17:12:17;;;;;;;5.70;3.72;;;;;;;23.94;50.72;96681.25;10504275;27;20478;-58
2022/06/09 17:17:17;;;;;;;8.13;5.07;;;;;;;23.42;50.48;96669.91;10519553;27;20517;-58
2022/06/09 17:22:16;;;;;;;7.00;4.70;;;;;;;23.08;51.95;96681.13;10506576;27;20060;-58
2022/06/09 17:27:15;;;;;;;4.35;3.17;;;;;;;22.71;54.06;96691.53;10500080;28;20035;-58
2022/06/09 17:32:14;;;;;;;4.85;3.67;;;;;;;22.23;53.74;96692.03;10499714;28;20037;-58
2022/06/09 17:37:13;;;;;;;5.35;4.10;;;;;;;21.75;54.73;96694.16;10496850;28;20088;-58
2022/06/09 17:42:12;;;;;;;7.85;4.57;;;;;;;21.37;55.77;96693.91;10497422;28;20143;-58
2022/06/09 17:47:13;;;;;;;4.07;3.45;;;;;;;20.93;56.53;96695.63;10499092;28;20050;-58
2022/06/09 17:52:12;;;;;;;3.17;2.70;;;;;;;20.62;58.10;96692.16;10492683;28;20071;-58
2022/06/09 17:57:11;;;;;;;6.55;4.70;;;;;;;20.36;59.90;96682.25;10499254;28;20526;-59
2022/06/09 18:02:10;;;;;;;4.63;3.80;;;;;;;20.12;61.67;96711.69;10493645;28;20524;-57
2022/06/09 18:07:09;;;;;;;4.50;3.00;;;;;;;19.90;62.65;96716.44;10495830;28;20040;-57
2022/06/09 18:12:08;;;;;;;6.03;3.45;;;;;;;19.68;64.00;96727.31;10499227;28;20135;-57
2022/06/09 18:17:07;;;;;;;4.38;3.47;;;;;;;19.52;65.41;96743.03;10482823;28;20088;-59
2022/06/09 18:22:06;;;;;;;6.53;3.90;;;;;;;19.42;65.90;96747.94;10498646;28;20031;-59
2022/06/09 18:27:06;;;;;;;6.15;3.70;;;;;;;19.33;65.58;96758.94;10481317;28;20062;-59
2022/06/09 18:32:06;;;;;;;4.85;3.65;;;;;;;19.14;66.11;96744.09;10499360;28;20063;-59
2022/06/09 18:37:05;;;;;;;9.50;4.50;;;;;;;19.10;68.05;96768.00;10495038;28;20074;-59
2022/06/09 18:42:07;;;;;;;6.80;3.90;;;;;;;18.81;70.71;96778.22;10494513;28;20533;-59
2022/06/09 18:47:06;;;;;;;6.63;3.95;;;;;;;18.69;71.22;96778.78;10470688;28;20080;-59
2022/06/09 18:52:06;;;;;;;8.40;4.15;;;;;;;18.61;71.47;96782.63;10471265;28;20055;-59
2022/06/09 18:57:05;;;;;;;9.07;4.57;;;;;;;18.56;71.51;96792.50;10499955;28;20055;-59
2022/06/09 19:02:04;;;;;;;5.75;4.30;;;;;;;18.51;71.83;96799.78;10497129;28;20058;-59
2022/06/09 19:07:04;;;;;;;5.93;4.45;;;;;;;18.27;71.83;96777.28;10500069;28;20079;-59
2022/06/09 19:12:05;;;;;;;4.22;3.83;;;;;;;18.31;71.45;96798.06;10506590;28;20493;-59
2022/06/09 19:17:06;;;;;;;5.47;3.70;;;;;;;18.18;71.77;96799.59;10505396;28;20062;-59
2022/06/09 19:22:05;;;;;;;7.03;4.40;;;;;;;18.08;72.48;96824.56;10505387;28;20502;-59
2022/06/09 19:27:09;;;;;;;7.05;4.28;;;;;;;17.95;73.76;96819.03;10503430;28;20086;-59
2022/06/09 19:32:08;;;;;;;6.68;4.75;;;;;;;17.82;76.04;96820.50;10505754;28;20078;-59
2022/06/09 19:37:07;;;;;;;11.98;6.22;;;;;;;17.80;75.77;96809.22;10505381;28;20077;-59
2022/06/09 19:42:07;;;;;;;9.32;5.28;;;;;;;17.81;75.91;96813.56;10506014;28;20054;-59
2022/06/09 19:47:09;;;;;;;12.18;4.88;;;;;;;17.71;77.57;96810.47;10505021;28;20059;-59
2022/06/09 19:52:08;;;;;;;9.02;5.22;;;;;;;17.60;78.17;96805.69;10504624;28;20071;-59
2022/06/09 19:57:11;;;;;;;7.47;4.47;;;;;;;17.58;78.52;96802.28;10506007;28;20028;-58
2022/06/09 20:02:15;;;;;;;7.85;4.93;;;;;;;17.59;79.01;96806.63;10502353;28;20063;-59
2022/06/09 20:07:16;;;;;;;12.65;6.82;;;;;;;17.44;80.81;96799.41;10504521;28;20077;-59
2022/06/09 20:12:15;;;;;;;8.25;5.78;;;;;;;17.48;80.33;96787.88;10504182;28;20498;-59
2022/06/09 20:17:25;;;;;;;10.13;6.65;;;;;;;17.49;80.35;96795.66;10502888;28;20151;-59
2022/06/09 20:22:24;;;;;;;8.40;6.10;;;;;;;17.48;80.41;96777.38;10502910;28;20071;-59
2022/06/09 20:27:26;;;;;;;9.13;5.60;;;;;;;17.45;80.33;96759.13;10503328;28;20082;-59
2022/06/09 20:32:25;;;;;;;8.95;5.68;;;;;;;17.48;80.86;96780.84;10497595;28;20067;-59
2022/06/09 20:37:24;;;;;;;12.30;5.95;;;;;;;17.33;82.09;96774.53;10501084;28;20050;-59
2022/06/09 20:42:25;;;;;;;8.40;5.97;;;;;;;17.25;82.55;96773.97;10502222;28;20058;-59
2022/06/09 20:47:25;;;;;;;11.40;6.88;;;;;;;17.16;83.14;96773.53;10502657;28;20063;-59
2022/06/09 20:52:25;;;;;;;11.02;6.70;;;;;;;17.05;83.98;96769.63;10484982;28;20083;-58
2022/06/09 20:57:24;;;;;;;11.05;7.32;;;;;;;17.03;83.58;96768.81;10471498;28;20066;-59
2022/06/09 21:02:24;;;;;;;8.82;6.22;;;;;;;16.94;84.49;96763.97;10503360;28;20504;-59
2022/06/09 21:07:24;;;;;;;10.90;6.57;;;;;;;16.90;84.28;96765.84;10503091;28;20453;-59
2022/06/09 21:22:58;;;;;;;11.80;9.52;;;;;;;16.62;86.37;96771.38;10501141;28;20556;-59
2022/06/09 21:27:57;;;;;;;;;;;;;;;16.60;86.77;96767.09;10496809;28;20557;-59
2022/06/09 21:32:56;;;;;;;10.47;7.30;;;;;;;16.61;86.47;96766.22;10500933;28;20326;-59
2022/06/09 21:37:56;;;;;;;10.90;7.40;;;;;;;16.69;86.79;96772.81;10500835;28;20051;-59
2022/06/09 21:42:55;;;;;;;12.00;7.18;;;;;;;16.61;86.73;96742.63;10500712;28;20153;-59
2022/06/09 21:47:55;;;;;;;12.70;7.00;;;;;;;16.81;86.94;96770.63;10496194;28;20066;-59
2022/06/09 21:52:54;;;;;;;7.32;6.25;;;;;;;16.86;87.21;96763.44;10499601;28;20075;-57
2022/06/09 21:57:53;;;;;;;13.57;6.03;;;;;;;16.88;86.78;96757.22;10498498;28;20063;-57
2022/06/09 22:02:52;;;;;;;;;;;;;;;16.83;87.17;96755.72;10500189;28;20032;-57
2022/06/09 22:07:52;;;;;;;10.37;7.03;;;;;;;16.69;87.38;96751.00;10498954;28;19915;-57
2022/06/09 22:12:52;;;;;;;9.80;6.65;;;;;;;16.64;87.22;96760.84;10499115;28;20066;-57
2022/06/09 22:17:51;;;;;;;12.45;7.13;;;;;;;16.62;86.86;96755.66;10496003;28;20059;-57
2022/06/09 22:22:50;;;;;;;11.80;7.75;;;;;;;16.56;87.07;96762.91;10498211;28;20055;-57
2022/06/09 22:27:49;;;;;;;;;;;;;;;16.37;87.69;96768.03;10499517;28;20039;-57
2022/06/09 22:32:48;;;;;;;13.53;7.83;;;;;;;16.17;89.29;96774.91;10496450;28;19947;-57
2022/06/09 22:37:48;;;;;;;13.55;7.43;;;;;;;16.04;89.97;96771.94;10499470;28;20063;-57
2022/06/09 22:42:46;;;;;;;14.82;7.88;;;;;;;15.81;90.41;96771.94;10495503;28;20051;-57
2022/06/09 22:47:45;;;;;;;;;;;;;;;15.78;90.33;96778.09;10499382;28;20034;-59
2022/06/09 22:52:44;;;;;;;12.30;7.88;;;;;;;15.76;90.13;96773.84;10499514;28;19955;-59
2022/06/09 22:57:43;;;;;;;;;;;;;;;15.73;90.65;96777.41;10497588;28;20070;-59
2022/06/09 23:02:42;;;;;;;10.05;7.63;;;;;;;15.63;90.78;96768.22;10498558;28;20351;-59
2022/06/09 23:07:41;;;;;;;;;;;;;;;15.65;91.30;96782.94;10499317;28;20028;-57
2022/06/09 23:12:40;;;;;;;12.88;7.28;;;;;;;15.57;91.53;96777.13;10497009;28;20374;-57
2022/06/09 23:17:40;;;;;;;11.93;7.43;;;;;;;15.52;92.11;96784.28;10456893;28;20058;-57
2022/06/09 23:22:40;;;;;;;12.80;7.57;;;;;;;15.60;91.89;96789.22;10496364;28;20062;-57
2022/06/09 23:27:41;;;;;;;10.20;7.07;;;;;;;15.70;92.08;96779.31;10498824;28;20055;-57
2022/06/09 23:32:41;;;;;;;12.10;7.97;;;;;;;15.58;93.32;96789.31;10497393;28;20587;-57
2022/06/09 23:37:44;;;;;;;13.15;6.90;;;;;;;15.51;94.01;96777.38;10473222;28;20078;-58
2022/06/09 23:42:43;;;;;;;12.60;6.65;;;;;;;15.33;95.01;96776.25;10496729;28;20069;-57
2022/06/09 23:47:42;;;;;;;11.48;6.68;;;;;;;15.24;94.78;96787.88;10488890;28;20063;-57
2022/06/09 23:52:41;;;;;;;;;;;;;;;15.20;95.25;96802.00;10462573;28;20055;-57
2022/06/09 23:57:40;;;;;;;10.45;6.50;;;;;;;15.10;96.06;96792.75;10497286;28;19915;-57
